Time,TemperatureF,DewpointF,PressureIn,WindDirection,WindDirectionDegrees,WindSpeedMPH,WindSpeedGustMPH,Humidity,HourlyPrecipIn,Conditions,Clouds,dailyrainin,SolarRadiationWatts/m^2,SoftwareType,DateUTC
2013-09-12 00:12:00,63.2,-99.9,29.96,SW,215,4.0,7.0,0,0.00,,,0.00,0,weatherlink.com 1.10,2013-09-12 07:12:00,
2013-09-12 00:27:00,63.0,-99.9,29.96,SSW,207,4.0,7.0,0,0.00,,,0.00,0,weatherlink.com 1.10,2013-09-12 07:27:00,
2013-09-12 00:43:00,63.0,-99.9,29.96,SSW,205,3.0,5.0,0,0.00,,,0.00,0,weatherlink.com 1.10,2013-09-12 07:43:00,
2013-09-12 00:58:00,63.1,-99.9,29.96,SSW,209,5.0,7.0,0,0.00,,,0.00,0,weatherlink.com 1.10,2013-09-12 07:58:00,
2013-09-12 01:13:00,63.0,-99.9,29.96,SSW,205,0.0,5.0,0,0.00,,,0.00,0,weatherlink.com 1.10,2013-09-12 08:13:00,
2013-09-12 01:28:00,62.9,-99.9,29.95,SSW,205,0.0,0.0,0,0.00,,,0.00,0,weatherlink.com 1.10,2013-09-12 08:28:00,
2013-09-12 01:43:00,62.9,-99.9,29.95,SSW,205,0.0,0.0,0,0.00,,,0.00,0,weatherlink.com 1.10,2013-09-12 08:43:00,
2013-09-12 01:58:00,62.8,-99.9,29.95,SSW,205,0.0,0.0,0,0.00,,,0.00,0,weatherlink.com 1.10,2013-09-12 08:58:00,
2013-09-12 02:13:00,62.7,-99.9,29.95,SSW,205,0.0,0.0,0,0.00,,,0.00,0,weatherlink.com 1.10,2013-09-12 09:13:00,
2013-09-12 02:29:00,62.7,-99.9,29.95,SSW,205,0.0,0.0,0,0.00,,,0.00,0,weatherlink.com 1.10,2013-09-12 09:29:00,
2013-09-12 02:44:00,62.7,-99.9,29.95,WSW,240,0.0,0.0,0,0.00,,,0.00,0,weatherlink.com 1.10,2013-09-12 09:44:00,
2013-09-12 02:59:00,62.7,-99.9,29.95,WSW,240,0.0,0.0,0,0.00,,,0.00,0,weatherlink.com 1.10,2013-09-12 09:59:00,
2013-09-12 03:15:00,62.7,-99.9,29.94,WSW,240,0.0,0.0,0,0.00,,,0.00,0,weatherlink.com 1.10,2013-09-12 10:15:00,
2013-09-12 03:30:00,62.6,-99.9,29.95,WSW,240,0.0,0.0,0,0.00,,,0.00,0,weatherlink.com 1.10,2013-09-12 10:30:00,
2013-09-12 03:45:00,62.5,-99.9,29.95,WSW,240,0.0,0.0,0,0.00,,,0.00,0,weatherlink.com 1.10,2013-09-12 10:45:00,
2013-09-12 04:00:00,62.2,-99.9,29.95,WSW,240,0.0,1.0,0,0.00,,,0.00,0,weatherlink.com 1.10,2013-09-12 11:00:00,
2013-09-12 04:15:00,62.2,-99.9,29.95,West,274,0.0,0.0,0,0.00,,,0.00,0,weatherlink.com 1.10,2013-09-12 11:15:00,
2013-09-12 04:30:00,62.0,-99.9,29.94,NW,311,0.0,0.0,0,0.00,,,0.00,0,weatherlink.com 1.10,2013-09-12 11:30:00,
2013-09-12 04:45:00,61.6,-99.9,29.94,North,360,0.0,4.0,0,0.00,,,0.00,0,weatherlink.com 1.10,2013-09-12 11:45:00,
2013-09-12 05:00:00,61.6,-99.9,29.94,North,360,0.0,0.0,0,0.00,,,0.00,0,weatherlink.com 1.10,2013-09-12 12:00:00,
2013-09-12 05:15:00,61.6,-99.9,29.94,North,360,0.0,0.0,0,0.00,,,0.00,0,weatherlink.com 1.10,2013-09-12 12:15:00,
2013-09-12 05:30:00,61.5,-99.9,29.94,North,360,0.0,0.0,0,0.00,,,0.00,0,weatherlink.com 1.10,2013-09-12 12:30:00,
2013-09-12 05:45:00,61.4,-99.9,29.94,NW,308,0.0,1.0,0,0.00,,,0.00,0,weatherlink.com 1.10,2013-09-12 12:45:00,
2013-09-12 06:00:00,61.6,-99.9,29.94,WNW,295,0.0,6.0,0,0.00,,,0.00,0,weatherlink.com 1.10,2013-09-12 13:00:00,
2013-09-12 06:15:00,61.6,-99.9,29.94,WNW,291,0.0,4.0,0,0.00,,,0.00,0,weatherlink.com 1.10,2013-09-12 13:15:00,
2013-09-12 06:30:00,61.4,-99.9,29.95,WNW,291,0.0,0.0,0,0.00,,,0.00,0,weatherlink.com 1.10,2013-09-12 13:30:00,
2013-09-12 06:47:00,61.4,-99.9,29.95,WNW,292,0.0,2.0,0,0.01,,,0.01,0,weatherlink.com 1.10,2013-09-12 13:47:00,
2013-09-12 07:01:00,61.1,-99.9,29.96,WNW,290,0.0,5.0,0,0.01,,,0.01,5,weatherlink.com 1.10,2013-09-12 14:01:00,
2013-09-12 07:16:00,61.0,-99.9,29.96,West,278,4.0,5.0,0,0.01,,,0.01,11,weatherlink.com 1.10,2013-09-12 14:16:00,
2013-09-12 07:31:00,60.7,-99.9,29.97,WNW,284,5.0,6.0,0,0.01,,,0.01,21,weatherlink.com 1.10,2013-09-12 14:31:00,
2013-09-12 07:46:00,60.5,-99.9,29.97,WNW,301,5.0,6.0,0,0.00,,,0.01,37,weatherlink.com 1.10,2013-09-12 14:46:00,
2013-09-12 08:01:00,60.7,-99.9,29.97,WNW,288,0.0,2.0,0,0.00,,,0.01,56,weatherlink.com 1.10,2013-09-12 15:01:00,
2013-09-12 08:17:00,60.7,-99.9,29.97,WNW,293,1.0,5.0,0,0.00,,,0.01,72,weatherlink.com 1.10,2013-09-12 15:17:00,
2013-09-12 08:32:00,60.6,-99.9,29.98,WNW,289,6.0,8.0,0,0.00,,,0.01,100,weatherlink.com 1.10,2013-09-12 15:32:00,
2013-09-12 08:47:00,60.7,-99.9,29.98,WNW,299,5.0,7.0,0,0.00,,,0.01,128,weatherlink.com 1.10,2013-09-12 15:47:00,
2013-09-12 09:02:00,61.2,-99.9,29.98,NW,306,4.0,9.0,0,0.00,,,0.01,153,weatherlink.com 1.10,2013-09-12 16:02:00,
2013-09-12 09:17:00,61.7,-99.9,29.98,NW,311,4.0,9.0,0,0.00,,,0.01,229,weatherlink.com 1.10,2013-09-12 16:17:00,
2013-09-12 09:32:00,62.3,-99.9,29.98,West,263,2.0,11.0,0,0.00,,,0.01,188,weatherlink.com 1.10,2013-09-12 16:32:00,
2013-09-12 10:04:00,64.0,-99.9,29.98,WNW,283,5.0,9.0,0,0.00,,,0.01,313,weatherlink.com 1.10,2013-09-12 17:04:00,
2013-09-12 10:18:00,63.5,-99.9,29.98,WNW,303,5.0,10.0,0,0.00,,,0.01,299,weatherlink.com 1.10,2013-09-12 17:18:00,
2013-09-12 10:33:00,64.3,-99.9,29.98,West,260,9.0,9.0,0,0.00,,,0.01,309,weatherlink.com 1.10,2013-09-12 17:33:00,
2013-09-12 10:48:00,64.1,-99.9,29.98,West,279,5.0,10.0,0,0.00,,,0.01,715,weatherlink.com 1.10,2013-09-12 17:48:00,
2013-09-12 11:04:00,65.0,-99.9,29.98,NW,305,7.0,10.0,0,0.00,,,0.01,352,weatherlink.com 1.10,2013-09-12 18:04:00,
2013-09-12 11:19:00,65.2,-99.9,29.97,NW,306,7.0,9.0,0,0.00,,,0.01,596,weatherlink.com 1.10,2013-09-12 18:19:00,
2013-09-12 11:35:00,66.5,-12.0,29.97,NW,304,7.0,9.0,4,0.00,,,0.01,717,weatherlink.com 1.10,2013-09-12 18:35:00,
2013-09-12 11:49:00,66.7,20.0,29.97,WNW,286,3.0,11.0,17,0.00,,,0.01,904,weatherlink.com 1.10,2013-09-12 18:49:00,
2013-09-12 12:04:00,67.0,14.0,29.96,WNW,291,8.0,9.0,13,0.00,,,0.01,677,weatherlink.com 1.10,2013-09-12 19:04:00,
2013-09-12 12:19:00,65.6,7.0,29.96,West,269,7.0,11.0,10,0.00,,,0.01,649,weatherlink.com 1.10,2013-09-12 19:19:00,
2013-09-12 12:34:00,65.7,-99.9,29.96,West,271,7.0,10.0,0,0.00,,,0.01,415,weatherlink.com 1.10,2013-09-12 19:34:00,
2013-09-12 12:49:00,66.3,-12.0,29.96,WSW,254,5.0,9.0,4,0.00,,,0.01,598,weatherlink.com 1.10,2013-09-12 19:49:00,
2013-09-12 13:05:00,66.2,35.0,29.96,West,278,10.0,10.0,31,0.00,,,0.01,988,weatherlink.com 1.10,2013-09-12 20:05:00,
2013-09-12 13:20:00,66.4,26.0,29.96,West,277,10.0,13.0,22,0.00,,,0.01,652,weatherlink.com 1.10,2013-09-12 20:20:00,
2013-09-12 13:35:00,64.3,-27.0,29.96,WNW,286,9.0,12.0,2,0.00,,,0.01,397,weatherlink.com 1.10,2013-09-12 20:35:00,
2013-09-12 13:50:00,64.3,-99.9,29.95,WSW,252,10.0,11.0,0,0.00,,,0.01,439,weatherlink.com 1.10,2013-09-12 20:50:00,
2013-09-12 14:05:00,64.0,-99.9,29.95,WSW,247,6.0,12.0,0,0.00,,,0.01,420,weatherlink.com 1.10,2013-09-12 21:05:00,
2013-09-12 14:20:00,64.3,-99.9,29.95,West,265,8.0,13.0,0,0.00,,,0.01,457,weatherlink.com 1.10,2013-09-12 21:20:00,
2013-09-12 14:35:00,64.0,-99.9,29.95,West,260,8.0,13.0,0,0.00,,,0.01,345,weatherlink.com 1.10,2013-09-12 21:35:00,
2013-09-12 14:50:00,63.4,-99.9,29.94,West,270,6.0,15.0,0,0.00,,,0.01,483,weatherlink.com 1.10,2013-09-12 21:50:00,
2013-09-12 15:07:00,63.8,-99.9,29.95,NW,304,10.0,13.0,0,0.00,,,0.01,390,weatherlink.com 1.10,2013-09-12 22:07:00,
2013-09-12 15:21:00,64.4,-99.9,29.94,West,277,11.0,14.0,0,0.00,,,0.01,362,weatherlink.com 1.10,2013-09-12 22:21:00,
2013-09-12 15:36:00,64.5,-99.9,29.94,West,263,7.0,16.0,0,0.00,,,0.01,517,weatherlink.com 1.10,2013-09-12 22:36:00,
2013-09-12 15:51:00,64.3,-99.9,29.93,WSW,253,7.0,20.0,0,0.00,,,0.01,434,weatherlink.com 1.10,2013-09-12 22:51:00,
2013-09-12 16:06:00,64.2,-99.9,29.93,WNW,286,6.0,12.0,0,0.00,,,0.01,482,weatherlink.com 1.10,2013-09-12 23:06:00,
2013-09-12 16:21:00,65.6,-99.9,29.93,West,271,8.0,13.0,0,0.00,,,0.01,584,weatherlink.com 1.10,2013-09-12 23:21:00,
2013-09-12 16:36:00,65.6,5.0,29.92,West,265,7.0,20.0,9,0.00,,,0.01,622,weatherlink.com 1.10,2013-09-12 23:36:00,
2013-09-12 16:52:00,65.1,-13.0,29.92,WSW,258,7.0,19.0,4,0.00,,,0.01,429,weatherlink.com 1.10,2013-09-12 23:52:00,
2013-09-12 17:08:00,65.3,-38.0,29.92,WSW,257,15.0,18.0,1,0.00,,,0.01,260,weatherlink.com 1.10,2013-09-13 00:08:00,
2013-09-12 17:22:00,63.6,-99.9,29.91,NW,306,9.0,19.0,0,0.00,,,0.01,186,weatherlink.com 1.10,2013-09-13 00:22:00,
2013-09-12 17:38:00,62.9,-99.9,29.91,West,281,11.0,16.0,0,0.00,,,0.01,188,weatherlink.com 1.10,2013-09-13 00:38:00,
2013-09-12 17:53:00,62.7,-99.9,29.91,WNW,286,5.0,16.0,0,0.00,,,0.01,113,weatherlink.com 1.10,2013-09-13 00:53:00,
2013-09-12 18:07:00,62.3,-99.9,29.91,WNW,298,11.0,18.0,0,0.00,,,0.01,67,weatherlink.com 1.10,2013-09-13 01:07:00,
2013-09-12 18:22:00,62.0,-99.9,29.91,NW,325,10.0,21.0,0,0.00,,,0.01,40,weatherlink.com 1.10,2013-09-13 01:22:00,
2013-09-12 18:38:00,61.7,-99.9,29.91,WSW,258,7.0,15.0,0,0.00,,,0.01,35,weatherlink.com 1.10,2013-09-13 01:38:00,
2013-09-12 18:53:00,61.5,-99.9,29.91,West,277,9.0,19.0,0,0.00,,,0.01,26,weatherlink.com 1.10,2013-09-13 01:53:00,
2013-09-12 19:08:00,61.1,-99.9,29.91,WNW,292,8.0,12.0,0,0.00,,,0.01,7,weatherlink.com 1.10,2013-09-13 02:08:00,
2013-09-12 19:23:00,60.9,-99.9,29.91,WNW,302,5.0,15.0,0,0.00,,,0.01,0,weatherlink.com 1.10,2013-09-13 02:23:00,
2013-09-12 19:38:00,60.8,-99.9,29.91,West,263,6.0,15.0,0,0.00,,,0.01,0,weatherlink.com 1.10,2013-09-13 02:38:00,
2013-09-12 19:53:00,60.7,-99.9,29.91,WNW,297,7.0,13.0,0,0.00,,,0.01,0,weatherlink.com 1.10,2013-09-13 02:53:00,
2013-09-12 20:08:00,60.6,-99.9,29.91,West,274,7.0,18.0,0,0.00,,,0.01,0,weatherlink.com 1.10,2013-09-13 03:08:00,
2013-09-12 20:25:00,60.3,-99.9,29.91,West,261,9.0,15.0,0,0.00,,,0.01,0,weatherlink.com 1.10,2013-09-13 03:25:00,
2013-09-12 20:41:00,60.1,-99.9,29.91,SW,220,4.0,16.0,0,0.00,,,0.01,0,weatherlink.com 1.10,2013-09-13 03:41:00,
2013-09-12 20:54:00,59.8,-99.9,29.92,West,263,8.0,15.0,0,0.00,,,0.01,0,weatherlink.com 1.10,2013-09-13 03:54:00,
2013-09-12 21:09:00,59.6,-99.9,29.91,West,279,13.0,16.0,0,0.00,,,0.01,0,weatherlink.com 1.10,2013-09-13 04:09:00,
2013-09-12 21:24:00,59.4,-99.9,29.91,West,279,13.0,14.0,0,0.00,,,0.01,0,weatherlink.com 1.10,2013-09-13 04:24:00,
2013-09-12 21:39:00,59.0,-99.9,29.91,West,270,7.0,19.0,0,0.00,,,0.01,0,weatherlink.com 1.10,2013-09-13 04:39:00,
2013-09-12 21:56:00,59.0,-99.9,29.91,WNW,282,7.0,10.0,0,0.00,,,0.01,0,weatherlink.com 1.10,2013-09-13 04:56:00,
2013-09-12 22:10:00,58.6,-99.9,29.91,West,277,6.0,18.0,0,0.00,,,0.01,0,weatherlink.com 1.10,2013-09-13 05:10:00,
2013-09-12 22:25:00,58.5,-99.9,29.91,West,275,8.0,11.0,0,0.00,,,0.01,0,weatherlink.com 1.10,2013-09-13 05:25:00,
2013-09-12 22:40:00,58.4,-99.9,29.91,WSW,244,5.0,11.0,0,0.00,,,0.01,0,weatherlink.com 1.10,2013-09-13 05:40:00,
2013-09-12 22:55:00,58.2,-99.9,29.91,WSW,256,3.0,13.0,0,0.00,,,0.01,0,weatherlink.com 1.10,2013-09-13 05:55:00,
2013-09-12 23:10:00,58.1,-99.9,29.91,WNW,290,1.0,14.0,0,0.00,,,0.01,0,weatherlink.com 1.10,2013-09-13 06:10:00,
2013-09-12 23:26:00,58.0,-99.9,29.91,West,269,5.0,12.0,0,0.00,,,0.01,0,weatherlink.com 1.10,2013-09-13 06:26:00,
2013-09-12 23:41:00,57.8,-99.9,29.91,WSW,255,5.0,7.0,0,0.00,,,0.01,0,weatherlink.com 1.10,2013-09-13 06:41:00,
2013-09-12 23:56:00,57.7,-99.9,29.91,West,259,4.0,8.0,0,0.00,,,0.01,0,weatherlink.com 1.10,2013-09-13 06:56:00,